createdAt,value
2022-10-26T00:01:23.640Z,15.48
2022-10-26T00:03:57.619Z,14.50
2022-10-26T00:06:30.191Z,15.45
2022-10-26T00:09:02.625Z,15.38
2022-10-26T00:11:35.133Z,15.23
2022-10-26T00:14:07.534Z,14.48
2022-10-26T00:16:40.043Z,15.98
2022-10-26T00:19:12.554Z,15.20
2022-10-26T00:21:45.136Z,15.05
2022-10-26T00:26:55.140Z,14.77
2022-10-26T00:29:27.779Z,15.65
2022-10-26T00:32:00.389Z,15.75
2022-10-26T00:34:33.287Z,15.75
2022-10-26T00:37:05.975Z,14.05
2022-10-26T00:39:38.523Z,15.38
2022-10-26T00:42:17.413Z,14.43
2022-10-26T00:44:51.214Z,15.52
2022-10-26T00:47:36.293Z,15.63
2022-10-26T00:50:18.167Z,15.30
2022-10-26T00:52:53.152Z,14.00
2022-10-26T00:55:30.035Z,15.20
2022-10-26T00:58:05.788Z,15.32
2022-10-26T01:00:39.789Z,15.90
2022-10-26T01:03:12.513Z,15.68
2022-10-26T01:05:46.666Z,15.65
2022-10-26T01:08:19.505Z,15.57
2022-10-26T01:10:52.704Z,14.90
2022-10-26T01:13:28.759Z,14.73
2022-10-26T01:16:24.268Z,13.98
2022-10-26T01:19:08.263Z,14.50
2022-10-26T01:22:01.016Z,14.35
2022-10-26T01:24:41.438Z,14.45
2022-10-26T01:27:36.077Z,14.95
2022-10-26T01:30:16.607Z,14.15
2022-10-26T01:33:11.284Z,13.88
2022-10-26T01:35:51.922Z,14.35
2022-10-26T01:38:40.988Z,14.27
2022-10-26T01:41:21.877Z,13.05
2022-10-26T01:43:59.617Z,14.18
2022-10-26T01:46:39.891Z,12.93
2022-10-26T01:49:15.879Z,13.27
2022-10-26T01:51:50.010Z,12.85
2022-10-26T01:54:22.578Z,13.43
2022-10-26T01:57:02.653Z,13.45
2022-10-26T01:59:48.795Z,12.43
2022-10-26T02:02:38.350Z,13.10
2022-10-26T02:05:14.650Z,13.10
2022-10-26T02:07:47.937Z,13.25
2022-10-26T02:10:44.925Z,13.10
2022-10-26T02:13:38.946Z,12.75
2022-10-26T02:16:37.725Z,12.30
2022-10-26T02:19:19.600Z,10.75
2022-10-26T02:22:00.674Z,10.93
2022-10-26T02:24:35.373Z,10.23
2022-10-26T02:27:13.651Z,9.20
2022-10-26T02:29:48.418Z,10.35
2022-10-26T02:32:24.825Z,10.32
2022-10-26T02:35:00.586Z,11.00
2022-10-26T02:37:36.017Z,10.40
2022-10-26T02:40:13.491Z,10.63
2022-10-26T02:42:47.523Z,10.68
2022-10-26T02:45:25.856Z,10.70
2022-10-26T02:47:58.820Z,10.95
2022-10-26T02:50:38.701Z,10.70
2022-10-26T02:53:16.499Z,10.63
2022-10-26T02:55:52.122Z,10.80
2022-10-26T02:58:29.790Z,9.60
2022-10-26T03:01:02.429Z,9.93
2022-10-26T03:03:35.070Z,9.38
2022-10-26T03:06:07.816Z,9.90
2022-10-26T03:08:40.323Z,9.50
2022-10-26T03:11:12.918Z,9.75
2022-10-26T03:13:45.801Z,9.98
2022-10-26T03:16:18.359Z,10.82
2022-10-26T03:18:50.848Z,10.98
2022-10-26T03:21:23.439Z,10.75
2022-10-26T03:23:56.016Z,10.90
2022-10-26T03:26:28.719Z,11.63
2022-10-26T03:29:01.177Z,10.70
2022-10-26T03:31:33.776Z,10.32
2022-10-26T03:34:06.254Z,11.55
2022-10-26T03:36:38.793Z,10.25
2022-10-26T03:39:11.289Z,9.77
2022-10-26T03:41:44.637Z,9.20
2022-10-26T03:44:17.188Z,10.18
2022-10-26T03:46:49.842Z,10.07
2022-10-26T03:49:22.511Z,9.55
2022-10-26T03:51:55.162Z,9.85
2022-10-26T03:54:27.680Z,9.80
2022-10-26T03:57:00.315Z,9.50
2022-10-26T03:59:32.858Z,10.23
2022-10-26T04:02:05.459Z,10.75
2022-10-26T04:04:38.042Z,9.93
2022-10-26T04:07:11.348Z,9.35
2022-10-26T04:09:43.840Z,9.25
2022-10-26T04:12:16.413Z,8.88
2022-10-26T04:14:48.911Z,8.60
2022-10-26T04:17:21.521Z,8.77
2022-10-26T04:19:54.082Z,8.50
2022-10-26T04:22:26.626Z,9.65
2022-10-26T04:24:59.108Z,9.25
2022-10-26T04:27:31.624Z,8.27
2022-10-26T04:30:05.929Z,9.10
2022-10-26T04:32:38.621Z,8.23
2022-10-26T04:35:14.603Z,8.50
2022-10-26T04:37:48.564Z,9.15
2022-10-26T04:40:21.112Z,8.55
2022-10-26T04:42:54.035Z,9.15
2022-10-26T04:45:28.802Z,8.52
2022-10-26T04:48:04.207Z,8.55
2022-10-26T04:53:10.145Z,9.23
2022-10-26T04:55:42.913Z,8.52
2022-10-26T04:58:15.414Z,8.20
2022-10-26T05:00:47.928Z,7.13
2022-10-26T05:03:20.919Z,7.75
2022-10-26T05:05:53.899Z,7.50
2022-10-26T05:08:30.046Z,8.18
2022-10-26T05:11:02.610Z,8.07
2022-10-26T05:13:35.177Z,7.97
2022-10-26T05:16:08.027Z,8.02
2022-10-26T05:18:40.690Z,9.23
2022-10-26T05:21:19.670Z,8.90
2022-10-26T05:23:55.777Z,9.07
2022-10-26T05:26:28.770Z,8.90
2022-10-26T05:29:01.449Z,9.00
2022-10-26T05:31:33.958Z,8.38
2022-10-26T05:34:06.681Z,8.75
2022-10-26T05:36:39.335Z,7.75
2022-10-26T05:39:12.167Z,7.57
2022-10-26T05:41:44.759Z,7.70
2022-10-26T05:44:17.435Z,8.30
2022-10-26T05:49:27.492Z,7.65
2022-10-26T05:52:00.216Z,7.95
2022-10-26T05:54:32.759Z,7.50
2022-10-26T05:57:05.628Z,7.00
2022-10-26T05:59:38.574Z,7.70
2022-10-26T06:02:34.227Z,7.65
2022-10-26T06:05:11.525Z,7.80
2022-10-26T06:07:44.424Z,9.13
2022-10-26T06:10:17.904Z,8.10
2022-10-26T06:12:51.250Z,7.38
2022-10-26T06:15:25.044Z,7.15
2022-10-26T06:18:12.312Z,8.35
2022-10-26T06:21:00.177Z,8.00
2022-10-26T06:23:54.237Z,7.10
2022-10-26T06:26:38.312Z,7.50
2022-10-26T06:29:18.090Z,7.85
2022-10-26T06:31:50.798Z,7.70
2022-10-26T06:34:30.923Z,7.93
2022-10-26T06:37:05.253Z,7.53
2022-10-26T06:39:43.049Z,7.05
2022-10-26T06:42:16.068Z,7.60
2022-10-26T06:44:50.232Z,7.20
2022-10-26T06:47:42.334Z,7.70
2022-10-26T06:50:33.338Z,7.35
2022-10-26T06:53:21.616Z,7.55
2022-10-26T06:55:55.508Z,7.57
2022-10-26T06:58:33.898Z,7.18
2022-10-26T07:01:07.189Z,6.80
2022-10-26T07:03:40.029Z,7.50
2022-10-26T07:06:12.561Z,7.43
2022-10-26T07:08:45.200Z,6.80
2022-10-26T07:11:17.788Z,7.30
2022-10-26T07:13:52.072Z,7.93
2022-10-26T07:16:25.103Z,7.50
2022-10-26T07:18:57.706Z,7.93
2022-10-26T07:21:30.261Z,7.63
2022-10-26T07:24:03.128Z,7.95
2022-10-26T07:26:35.768Z,8.48
2022-10-26T07:29:08.546Z,7.88
2022-10-26T07:31:41.193Z,8.65
2022-10-26T07:34:13.931Z,7.68
2022-10-26T07:36:46.662Z,8.63
2022-10-26T07:39:19.536Z,9.95
2022-10-26T07:41:52.177Z,9.32
2022-10-26T07:44:24.989Z,9.13
2022-10-26T07:46:57.667Z,10.48
2022-10-26T07:49:30.317Z,9.68
2022-10-26T07:52:03.003Z,10.95
2022-10-26T07:54:35.664Z,11.18
2022-10-26T07:57:08.337Z,11.23
2022-10-26T07:59:41.145Z,11.10
2022-10-26T08:02:13.837Z,11.23
2022-10-26T08:04:46.420Z,10.80
2022-10-26T08:07:18.910Z,12.23
2022-10-26T08:09:52.471Z,11.40
2022-10-26T08:12:25.377Z,11.02
2022-10-26T08:14:58.057Z,11.32
2022-10-26T08:17:30.608Z,10.55
2022-10-26T08:20:04.050Z,10.90
2022-10-26T08:22:36.628Z,10.93
2022-10-26T08:25:09.489Z,10.82
2022-10-26T08:27:42.042Z,11.48
2022-10-26T08:30:16.158Z,12.07
2022-10-26T08:32:49.807Z,12.50
2022-10-26T08:35:22.715Z,12.90
2022-10-26T08:37:56.108Z,12.00
2022-10-26T08:40:33.320Z,12.27
2022-10-26T08:43:26.415Z,11.63
2022-10-26T08:46:17.956Z,12.88
2022-10-26T08:49:02.180Z,13.43
2022-10-26T08:51:40.053Z,13.60
2022-10-26T08:54:29.209Z,12.50
2022-10-26T08:57:10.985Z,13.10
2022-10-26T08:59:50.111Z,12.93
2022-10-26T09:02:24.499Z,12.40
2022-10-26T09:04:59.790Z,13.47
2022-10-26T09:07:59.202Z,12.05
2022-10-26T09:10:33.465Z,11.13
2022-10-26T09:13:24.135Z,11.75
2022-10-26T09:16:04.512Z,10.98
2022-10-26T09:18:56.717Z,10.20
2022-10-26T09:21:54.561Z,11.02
2022-10-26T09:24:33.866Z,10.90
2022-10-26T09:27:24.388Z,10.50
2022-10-26T09:30:04.383Z,11.00
2022-10-26T09:32:44.802Z,10.48
2022-10-26T09:35:21.026Z,11.13
2022-10-26T09:37:58.729Z,11.65
2022-10-26T09:40:39.282Z,12.73
2022-10-26T09:43:19.179Z,12.82
2022-10-26T09:45:53.081Z,12.15
2022-10-26T09:48:46.941Z,10.70
2022-10-26T09:51:20.045Z,11.70
2022-10-26T09:53:54.088Z,12.73
2022-10-26T09:56:28.285Z,10.95
2022-10-26T09:59:05.863Z,11.85
2022-10-26T10:01:41.510Z,12.25
2022-10-26T10:04:31.372Z,11.45
2022-10-26T10:07:14.136Z,11.60
2022-10-26T10:10:07.800Z,11.50
2022-10-26T10:12:40.427Z,12.90
2022-10-26T10:15:19.633Z,16.63
2022-10-26T10:17:56.913Z,16.20
2022-10-26T10:20:34.515Z,16.35
2022-10-26T10:23:29.398Z,17.52
2022-10-26T10:26:08.771Z,19.73
2022-10-26T10:28:44.274Z,19.27
2022-10-26T10:31:21.779Z,20.55
2022-10-26T10:33:54.616Z,19.05
2022-10-26T10:36:30.753Z,20.48
2022-10-26T10:39:18.685Z,22.38
2022-10-26T10:41:51.780Z,21.42
2022-10-26T10:44:30.252Z,21.85
2022-10-26T10:47:07.778Z,20.58
2022-10-26T10:49:40.777Z,21.23
2022-10-26T10:52:26.384Z,22.73
2022-10-26T10:58:17.212Z,21.35
2022-10-26T11:00:50.020Z,23.23
2022-10-26T11:03:38.528Z,22.38
2022-10-26T11:06:19.448Z,22.05
2022-10-26T11:09:11.821Z,20.98
2022-10-26T11:12:02.433Z,22.30
2022-10-26T11:14:40.085Z,23.75
2022-10-26T11:17:21.927Z,24.38
2022-10-26T11:20:10.054Z,25.80
2022-10-26T11:23:02.935Z,20.63
2022-10-26T11:25:54.422Z,21.88
2022-10-26T11:28:38.354Z,20.67
2022-10-26T11:31:17.956Z,21.65
2022-10-26T11:34:17.161Z,19.17
2022-10-26T11:36:56.226Z,17.60
2022-10-26T11:39:44.956Z,21.45
2022-10-26T11:42:41.094Z,21.35
2022-10-26T11:48:15.188Z,19.63
2022-10-26T11:50:53.874Z,20.38
2022-10-26T11:53:32.502Z,19.30
2022-10-26T11:56:14.841Z,18.77
2022-10-26T11:58:48.259Z,21.33
2022-10-26T12:01:21.929Z,20.85
2022-10-26T12:03:58.274Z,21.15
2022-10-26T12:06:32.942Z,17.55
2022-10-26T12:09:15.542Z,16.52
2022-10-26T12:11:58.386Z,18.77
2022-10-26T12:14:47.595Z,18.30
2022-10-26T12:17:26.378Z,19.05
2022-10-26T12:20:03.650Z,19.55
2022-10-26T12:22:40.828Z,18.05
2022-10-26T12:25:15.624Z,20.40
2022-10-26T12:27:49.095Z,18.33
2022-10-26T12:30:25.849Z,18.20
2022-10-26T12:33:02.199Z,17.55
2022-10-26T12:35:38.443Z,17.02
2022-10-26T12:38:30.305Z,17.00
2022-10-26T12:41:07.559Z,16.88
2022-10-26T12:43:41.527Z,17.08
2022-10-26T12:46:16.453Z,15.93
2022-10-26T12:48:50.796Z,16.23
2022-10-26T12:51:25.020Z,14.70
2022-10-26T12:54:14.758Z,14.77
2022-10-26T12:56:55.685Z,15.77
2022-10-26T12:59:50.736Z,17.05
2022-10-26T13:02:55.457Z,17.17
2022-10-26T13:05:47.372Z,15.55
2022-10-26T13:08:20.671Z,14.25
2022-10-26T13:11:05.727Z,14.73
2022-10-26T13:13:38.330Z,16.23
2022-10-26T13:16:13.720Z,15.90
2022-10-26T13:18:49.539Z,14.50
2022-10-26T13:21:25.017Z,16.30
2022-10-26T13:24:05.875Z,17.50
2022-10-26T13:27:09.713Z,16.80
2022-10-26T13:30:05.811Z,16.25
2022-10-26T13:35:14.805Z,15.75
2022-10-26T13:37:50.941Z,18.52
2022-10-26T13:40:27.459Z,18.35
2022-10-26T13:43:05.381Z,18.60
2022-10-26T13:45:50.830Z,17.33
2022-10-26T13:48:40.534Z,17.50
2022-10-26T13:51:21.280Z,17.50
2022-10-26T13:54:02.674Z,17.50
2022-10-26T13:56:41.510Z,17.70
2022-10-26T13:59:16.532Z,18.02
2022-10-26T14:02:08.723Z,18.08
2022-10-26T14:04:41.276Z,17.15
2022-10-26T14:07:23.226Z,17.17
2022-10-26T14:09:58.773Z,17.45
2022-10-26T14:12:32.206Z,16.92
2022-10-26T14:15:09.560Z,16.73
2022-10-26T14:17:42.291Z,16.60
2022-10-26T14:20:22.394Z,16.92
2022-10-26T14:22:55.115Z,17.05
2022-10-26T14:25:42.528Z,17.40
2022-10-26T14:28:27.911Z,17.20
2022-10-26T14:31:32.190Z,16.35
2022-10-26T14:34:05.716Z,17.63
2022-10-26T14:36:46.094Z,18.63
2022-10-26T14:39:37.679Z,18.40
2022-10-26T14:42:24.923Z,17.75
2022-10-26T14:44:58.873Z,17.60
2022-10-26T14:47:34.134Z,18.40
2022-10-26T14:50:07.204Z,19.25
2022-10-26T14:52:40.389Z,18.98
2022-10-26T14:55:15.733Z,18.58
2022-10-26T14:57:51.914Z,18.17
2022-10-26T15:00:25.905Z,17.67
2022-10-26T15:02:59.471Z,17.23
2022-10-26T15:05:36.076Z,17.42
2022-10-26T15:08:52.257Z,16.80
2022-10-26T15:11:32.012Z,15.45
2022-10-26T15:16:56.021Z,15.25
2022-10-26T15:19:29.185Z,15.80
2022-10-26T15:22:01.843Z,14.65
2022-10-26T15:24:39.324Z,15.82
2022-10-26T15:27:16.411Z,15.75
2022-10-26T15:29:53.489Z,15.30
2022-10-26T15:32:30.991Z,14.32
2022-10-26T15:35:20.250Z,15.20
2022-10-26T15:37:55.656Z,15.20
2022-10-26T15:40:29.706Z,14.45
2022-10-26T15:43:02.637Z,15.13
2022-10-26T15:45:45.022Z,14.63
2022-10-26T15:48:20.362Z,14.23
2022-10-26T15:50:53.484Z,13.82
2022-10-26T15:53:28.732Z,13.13
2022-10-26T15:56:01.697Z,14.10
2022-10-26T15:58:34.490Z,11.75
2022-10-26T16:01:09.195Z,12.73
2022-10-26T16:03:43.361Z,11.57
2022-10-26T16:06:19.124Z,11.18
2022-10-26T16:08:54.029Z,10.75
2022-10-26T16:11:26.755Z,11.15
2022-10-26T16:14:02.825Z,10.18
2022-10-26T16:16:36.959Z,10.70
2022-10-26T16:19:30.904Z,9.35
2022-10-26T16:22:03.949Z,10.80
2022-10-26T16:24:36.664Z,10.98
2022-10-26T16:27:09.241Z,10.75
2022-10-26T16:29:41.801Z,10.32
2022-10-26T16:32:14.625Z,11.23
2022-10-26T16:34:47.309Z,12.45
2022-10-26T16:37:19.891Z,12.07
2022-10-26T16:39:52.548Z,11.35
2022-10-26T16:42:25.620Z,11.48
2022-10-26T16:45:01.795Z,12.75
2022-10-26T16:47:37.323Z,11.88
2022-10-26T16:50:12.292Z,11.40
2022-10-26T16:52:45.677Z,13.75
2022-10-26T16:55:18.763Z,13.27
2022-10-26T16:57:51.652Z,13.57
2022-10-26T17:00:25.275Z,12.93
2022-10-26T17:02:58.110Z,13.43
2022-10-26T17:05:30.733Z,14.73
2022-10-26T17:08:03.452Z,14.77
2022-10-26T17:10:36.122Z,14.15
2022-10-26T17:13:08.828Z,14.55
2022-10-26T17:15:41.355Z,15.88
2022-10-26T17:18:14.401Z,15.20
2022-10-26T17:20:51.089Z,16.20
2022-10-26T17:23:24.172Z,15.43
2022-10-26T17:26:02.300Z,14.93
2022-10-26T17:28:36.054Z,16.75
2022-10-26T17:31:12.689Z,16.23
2022-10-26T17:33:51.317Z,16.15
2022-10-26T17:36:26.213Z,17.48
2022-10-26T17:38:58.867Z,17.25
2022-10-26T17:41:31.449Z,17.10
2022-10-26T17:44:04.381Z,16.67
2022-10-26T17:46:37.035Z,16.65
2022-10-26T17:49:09.676Z,17.02
2022-10-26T17:51:42.271Z,18.27
2022-10-26T17:56:54.491Z,18.10
2022-10-26T17:59:27.176Z,18.40
2022-10-26T18:02:00.676Z,17.55
2022-10-26T18:04:33.420Z,18.48
2022-10-26T18:07:06.065Z,18.55
2022-10-26T18:09:38.809Z,21.23
2022-10-26T18:12:11.345Z,24.40
2022-10-26T18:14:43.999Z,23.38
2022-10-26T18:17:16.841Z,21.33
2022-10-26T18:19:49.550Z,19.63
2022-10-26T18:22:22.066Z,19.20
2022-10-26T18:24:55.072Z,19.98
2022-10-26T18:27:27.953Z,19.73
2022-10-26T18:30:00.744Z,18.60
2022-10-26T18:32:33.501Z,19.35
2022-10-26T18:35:06.667Z,20.38
2022-10-26T18:37:39.168Z,20.98
2022-10-26T18:40:13.221Z,19.98
2022-10-26T18:42:45.894Z,21.25
2022-10-26T18:45:18.547Z,20.60
2022-10-26T18:47:51.439Z,20.70
2022-10-26T18:50:24.318Z,20.77
2022-10-26T18:52:56.961Z,20.05
2022-10-26T18:55:29.724Z,21.10
2022-10-26T18:58:02.270Z,20.85
2022-10-26T19:00:35.201Z,22.42
2022-10-26T19:03:08.875Z,23.33
2022-10-26T19:05:42.068Z,23.23
2022-10-26T19:08:14.773Z,23.80
2022-10-26T19:10:47.416Z,23.02
2022-10-26T19:13:20.019Z,23.08
2022-10-26T19:16:02.426Z,24.42
2022-10-26T19:18:35.631Z,23.95
2022-10-26T19:21:11.098Z,23.20
2022-10-26T19:23:47.148Z,23.40
2022-10-26T19:26:23.169Z,24.17
2022-10-26T19:28:57.963Z,23.85
2022-10-26T19:31:33.125Z,24.23
2022-10-26T19:34:06.445Z,24.95
2022-10-26T19:36:45.471Z,23.88
2022-10-26T19:39:19.031Z,24.25
2022-10-26T19:41:55.163Z,24.80
2022-10-26T19:44:27.849Z,27.17
2022-10-26T19:47:01.091Z,26.55
2022-10-26T19:49:34.133Z,24.83
2022-10-26T19:52:09.449Z,25.88
2022-10-26T19:54:42.077Z,25.83
2022-10-26T19:57:14.764Z,24.75
2022-10-26T19:59:48.395Z,24.95
2022-10-26T20:02:21.240Z,25.70
2022-10-26T20:04:53.813Z,26.08
2022-10-26T20:07:26.393Z,26.48
2022-10-26T20:09:59.011Z,26.50
2022-10-26T20:12:32.624Z,26.58
2022-10-26T20:15:05.867Z,25.48
2022-10-26T20:17:38.490Z,25.95
2022-10-26T20:20:12.307Z,28.67
2022-10-26T20:22:45.433Z,27.00
2022-10-26T20:25:17.938Z,27.13
2022-10-26T20:27:51.196Z,26.20
2022-10-26T20:30:23.800Z,27.60
2022-10-26T20:32:57.679Z,27.50
2022-10-26T20:35:30.184Z,27.73
2022-10-26T20:38:03.883Z,28.83
2022-10-26T20:40:37.179Z,27.02
2022-10-26T20:43:11.337Z,26.00
2022-10-26T20:45:45.995Z,27.55
2022-10-26T20:48:19.772Z,27.58
2022-10-26T20:53:54.825Z,24.63
2022-10-26T20:56:29.625Z,26.13
2022-10-26T20:59:04.342Z,26.55
2022-10-26T21:01:38.958Z,26.58
2022-10-26T21:04:11.637Z,26.27
2022-10-26T21:06:44.113Z,24.75
2022-10-26T21:09:16.899Z,23.25
2022-10-26T21:11:49.830Z,23.58
2022-10-26T21:14:22.593Z,22.83
2022-10-26T21:16:55.136Z,22.80
2022-10-26T21:19:27.714Z,21.20
2022-10-26T21:22:00.192Z,21.80
2022-10-26T21:24:32.801Z,22.27
2022-10-26T21:27:05.227Z,22.25
2022-10-26T21:29:37.841Z,22.08
2022-10-26T21:32:10.739Z,21.85
2022-10-26T21:34:43.958Z,20.50
2022-10-26T21:37:16.529Z,21.13
2022-10-26T21:39:49.143Z,19.10
2022-10-26T21:42:21.642Z,19.58
2022-10-26T21:44:54.166Z,19.77
2022-10-26T21:47:26.614Z,18.17
2022-10-26T21:50:55.358Z,19.50
2022-10-26T21:54:42.418Z,18.67
2022-10-26T21:58:29.171Z,16.63
2022-10-26T22:02:16.331Z,17.13
2022-10-26T22:06:03.520Z,17.33
2022-10-26T22:10:07.540Z,17.70
2022-10-26T22:13:57.175Z,16.73
2022-10-26T22:17:44.166Z,17.05
2022-10-26T22:21:31.701Z,17.00
2022-10-26T22:25:18.615Z,17.08
2022-10-26T22:29:06.164Z,18.10
2022-10-26T22:32:53.443Z,17.73
2022-10-26T22:36:40.865Z,17.98
2022-10-26T22:40:28.102Z,18.73
2022-10-26T22:44:15.275Z,19.58
2022-10-26T22:48:02.364Z,17.95
2022-10-26T22:51:49.762Z,18.20
2022-10-26T22:55:37.407Z,19.67
2022-10-26T22:59:24.321Z,18.57
2022-10-26T23:03:11.602Z,21.25
2022-10-26T23:06:58.681Z,20.63
2022-10-26T23:10:45.994Z,20.95
2022-10-26T23:14:33.207Z,22.80
2022-10-26T23:18:20.463Z,21.48
2022-10-26T23:22:07.533Z,22.85
2022-10-26T23:25:54.828Z,21.88
2022-10-26T23:29:42.120Z,22.70
2022-10-26T23:33:29.289Z,24.25
2022-10-26T23:37:16.652Z,23.07
2022-10-26T23:41:03.822Z,23.33
2022-10-26T23:44:51.303Z,22.55
2022-10-26T23:48:38.415Z,23.30
2022-10-26T23:52:25.831Z,22.33
2022-10-26T23:56:12.870Z,22.85
